Time;durP1;ratioP1;P1;durP2;ratioP2;P2;SDS_P1;SDS_P2;PMS_P1;PMS_P2;Temp;Humidity;BMP_temperature;BMP_pressure;BME280_temperature;BME280_humidity;BME280_pressure;Samples;Min_cycle;Max_cycle;Signal;HPM_P1;HPM_P2
2022/11/20 00:00:57;;;;;;;2.70;1.63;;;-3.30;99.90;;;;;;5045633;28;20055;-80
2022/11/20 00:03:25;;;;;;;2.97;1.55;;;-3.30;99.90;;;;;;5052629;28;20048;-80
2022/11/20 00:05:52;;;;;;;4.18;1.70;;;-3.20;99.90;;;;;;5052901;28;20521;-80
2022/11/20 00:08:21;;;;;;;2.42;1.85;;;-3.20;99.90;;;;;;5048118;28;20085;-78
2022/11/20 00:10:48;;;;;;;3.20;2.10;;;-3.10;99.90;;;;;;5031119;28;20054;-79
2022/11/20 00:13:16;;;;;;;3.13;1.60;;;-3.20;99.90;;;;;;5030172;28;20048;-80
2022/11/20 00:15:43;;;;;;;2.80;1.50;;;-3.20;99.90;;;;;;5048558;28;20053;-80
2022/11/20 00:18:10;;;;;;;2.28;1.80;;;-3.20;99.90;;;;;;5036671;28;20502;-80
2022/11/20 00:20:38;;;;;;;3.83;2.20;;;-3.20;99.90;;;;;;5051715;28;20564;-80
2022/11/20 00:23:06;;;;;;;6.40;1.88;;;-3.20;99.90;;;;;;5053122;28;20048;-79
2022/11/20 00:25:36;;;;;;;3.03;1.80;;;-3.20;99.90;;;;;;5052877;28;20510;-80
2022/11/20 00:28:04;;;;;;;1.92;1.52;;;-3.20;99.90;;;;;;5048092;28;20076;-81
2022/11/20 00:30:31;;;;;;;3.00;1.73;;;-3.20;99.90;;;;;;5049368;28;20492;-79
2022/11/20 00:32:59;;;;;;;4.07;2.17;;;-3.20;99.90;;;;;;5051495;28;20045;-80
2022/11/20 00:35:26;;;;;;;5.43;2.33;;;-3.20;99.90;;;;;;5049473;28;20417;-80
2022/11/20 00:37:53;;;;;;;3.58;1.80;;;-3.10;99.90;;;;;;5035260;28;20120;-79
2022/11/20 00:40:21;;;;;;;2.05;1.77;;;-3.20;99.90;;;;;;5031323;28;20536;-79
2022/11/20 00:42:51;;;;;;;5.43;1.70;;;-3.20;99.90;;;;;;5030856;28;20103;-79
2022/11/20 00:45:18;;;;;;;2.17;1.63;;;-3.20;99.90;;;;;;5038395;28;20147;-81
2022/11/20 00:47:46;;;;;;;4.00;2.05;;;-3.20;99.90;;;;;;5016617;28;20445;-80
2022/11/20 00:50:13;;;;;;;1.75;1.63;;;-3.20;99.90;;;;;;5031198;28;20557;-79
2022/11/20 00:52:41;;;;;;;2.88;1.73;;;-3.20;99.90;;;;;;5032170;28;20049;-80
2022/11/20 00:55:11;;;;;;;2.63;1.88;;;-3.10;99.90;;;;;;5036106;28;20053;-79
2022/11/20 00:57:38;;;;;;;2.20;1.73;;;-3.10;99.90;;;;;;5045190;28;20518;-79
2022/11/20 01:00:09;;;;;;;3.90;1.70;;;-3.10;99.90;;;;;;5032521;28;20506;-78
2022/11/20 01:02:36;;;;;;;4.50;2.33;;;-3.10;99.90;;;;;;5033178;28;20136;-79
2022/11/20 01:05:04;;;;;;;2.97;2.03;;;-3.00;99.90;;;;;;5043548;28;20045;-79
2022/11/20 01:07:33;;;;;;;3.15;2.17;;;-3.00;99.90;;;;;;5045737;28;20057;-79
2022/11/20 01:10:01;;;;;;;2.45;2.08;;;-3.00;99.90;;;;;;5030755;28;20049;-78
2022/11/20 01:12:30;;;;;;;3.65;2.05;;;-3.10;99.90;;;;;;5013645;28;20430;-78
2022/11/20 01:14:58;;;;;;;6.43;3.25;;;-3.00;99.90;;;;;;5047052;28;20460;-79
2022/11/20 01:17:26;;;;;;;2.58;2.05;;;-3.00;99.90;;;;;;5033509;28;20477;-79
2022/11/20 01:19:54;;;;;;;3.25;2.00;;;-3.00;99.90;;;;;;5033824;28;20143;-77
2022/11/20 01:22:21;;;;;;;2.50;1.88;;;-3.10;99.90;;;;;;5019184;28;20061;-77
2022/11/20 01:24:49;;;;;;;4.30;2.33;;;-3.10;99.90;;;;;;5049985;28;20080;-79
2022/11/20 01:27:16;;;;;;;2.67;1.90;;;-3.10;99.90;;;;;;5051545;28;20470;-78
2022/11/20 01:29:44;;;;;;;3.33;2.25;;;-3.10;99.90;;;;;;5049683;28;20076;-78
2022/11/20 01:32:11;;;;;;;4.38;2.28;;;-3.10;99.90;;;;;;5032503;28;20042;-78
2022/11/20 01:34:40;;;;;;;2.33;1.98;;;-3.10;99.90;;;;;;5049274;28;20053;-79
2022/11/20 01:37:07;;;;;;;3.13;2.20;;;-3.10;99.90;;;;;;5048766;28;20303;-79
2022/11/20 01:39:34;;;;;;;5.18;2.05;;;-3.10;99.90;;;;;;5042546;28;20065;-78
2022/11/20 01:44:56;;;;;;;2.70;1.90;;;-3.10;99.90;;;;;;5048336;28;20049;-78
2022/11/20 01:47:29;;;;;;;3.67;1.88;;;-3.10;99.90;;;;;;5083013;28;20416;-79
2022/11/20 01:50:05;;;;;;;3.78;2.25;;;-3.10;99.90;;;;;;5063128;28;20561;-79
2022/11/20 01:52:38;;;;;;;6.82;2.28;;;-3.10;99.90;;;;;;5065073;28;20053;-79
2022/11/20 01:55:10;;;;;;;3.28;2.15;;;-3.00;99.90;;;;;;5049202;28;20053;-79
2022/11/20 01:57:40;;;;;;;3.17;2.28;;;-3.00;99.90;;;;;;5042747;28;20562;-79
2022/11/20 02:00:10;;;;;;;4.00;2.53;;;-3.00;99.90;;;;;;5036401;28;20469;-78
2022/11/20 02:02:45;;;;;;;4.22;2.25;;;-3.00;99.90;;;;;;5029490;28;20056;-78
2022/11/20 02:05:22;;;;;;;2.38;1.98;;;-3.00;99.90;;;;;;5031017;28;20107;-78
2022/11/20 02:07:50;;;;;;;2.88;2.00;;;-3.00;99.90;;;;;;5029173;28;20081;-78
2022/11/20 02:10:18;;;;;;;2.90;2.05;;;-3.00;99.90;;;;;;5035108;28;20053;-79
2022/11/20 02:15:50;;;;;;;5.00;2.35;;;-3.00;99.90;;;;;;5044975;28;20084;-79
2022/11/20 02:18:21;;;;;;;3.22;2.38;;;-3.00;99.90;;;;;;5034148;28;20488;-79
2022/11/20 02:20:55;;;;;;;4.47;2.28;;;-3.10;99.90;;;;;;5030047;28;20061;-79
2022/11/20 02:23:31;;;;;;;2.53;2.30;;;-3.10;99.90;;;;;;5029035;28;20437;-79
2022/11/20 02:26:02;;;;;;;4.35;2.30;;;-3.10;99.90;;;;;;5030698;28;20522;-78
2022/11/20 02:28:29;;;;;;;3.58;2.05;;;-3.10;99.90;;;;;;5036332;28;20049;-79
2022/11/20 02:30:57;;;;;;;3.08;2.15;;;-3.10;99.90;;;;;;5027964;28;20131;-79
2022/11/20 02:33:24;;;;;;;3.72;2.33;;;-3.10;99.90;;;;;;5030427;28;20041;-79
2022/11/20 02:35:51;;;;;;;4.43;2.00;;;-3.10;99.90;;;;;;5028699;28;20088;-79
2022/11/20 02:38:19;;;;;;;4.07;2.20;;;-3.10;99.90;;;;;;5046944;28;20057;-80
2022/11/20 02:40:46;;;;;;;3.33;2.22;;;-3.10;99.90;;;;;;5047945;28;20044;-80
2022/11/20 02:43:17;;;;;;;4.35;2.60;;;-3.10;99.90;;;;;;5038179;28;20510;-79
2022/11/20 02:45:44;;;;;;;2.67;2.00;;;-3.10;99.90;;;;;;5030504;28;20056;-79
2022/11/20 02:48:12;;;;;;;3.33;2.13;;;-3.10;99.90;;;;;;5034078;28;20042;-80
2022/11/20 02:50:40;;;;;;;4.32;2.30;;;-3.10;99.90;;;;;;5044050;28;20072;-80
2022/11/20 02:53:08;;;;;;;6.57;2.38;;;-3.20;99.90;;;;;;5042485;28;20140;-80
2022/11/20 02:55:37;;;;;;;4.28;2.65;;;-3.10;99.90;;;;;;5035187;28;20049;-80
2022/11/20 02:58:04;;;;;;;3.75;2.00;;;-3.10;99.90;;;;;;5026824;28;20191;-79
2022/11/20 03:00:33;;;;;;;5.45;2.65;;;-3.10;99.90;;;;;;5028753;28;20385;-79
2022/11/20 03:03:00;;;;;;;2.92;2.00;;;-3.10;99.90;;;;;;5045337;28;20056;-80
2022/11/20 03:05:28;;;;;;;6.78;3.67;;;-3.10;99.90;;;;;;5061797;28;20103;-79
2022/11/20 03:07:55;;;;;;;3.17;2.17;;;-3.10;99.90;;;;;;5029738;28;20053;-78
2022/11/20 03:10:22;;;;;;;3.35;2.42;;;-3.10;99.90;;;;;;5038641;28;20057;-79
2022/11/20 03:12:55;;;;;;;4.75;2.28;;;-3.00;99.90;;;;;;5048671;28;20056;-79
2022/11/20 03:15:22;;;;;;;3.70;2.22;;;-3.10;99.90;;;;;;5037824;28;20053;-78
2022/11/20 03:17:55;;;;;;;4.35;2.38;;;-3.10;99.90;;;;;;5028323;28;20050;-79
2022/11/20 03:20:23;;;;;;;5.93;2.80;;;-3.10;99.90;;;;;;5058467;28;20057;-79
2022/11/20 03:22:51;;;;;;;4.38;2.42;;;-3.10;99.90;;;;;;5035714;28;20506;-79
2022/11/20 03:25:18;;;;;;;3.90;2.10;;;-3.10;99.90;;;;;;5049331;28;20041;-79
2022/11/20 03:27:45;;;;;;;3.55;2.17;;;-3.10;99.90;;;;;;5041805;28;20049;-80
2022/11/20 03:30:14;;;;;;;3.08;2.20;;;-3.10;99.90;;;;;;5031331;28;20053;-79
2022/11/20 03:32:41;;;;;;;4.25;2.30;;;-3.10;99.90;;;;;;5037670;28;20094;-78
2022/11/20 03:35:11;;;;;;;4.47;2.20;;;-3.10;99.90;;;;;;5031972;28;20549;-78
2022/11/20 03:37:38;;;;;;;3.40;2.22;;;-3.10;99.90;;;;;;5032037;28;20354;-79
2022/11/20 03:40:07;;;;;;;5.68;2.80;;;-3.20;99.90;;;;;;5047111;28;20143;-78
2022/11/20 03:42:47;;;;;;;4.45;2.60;;;-3.20;99.90;;;;;;5022922;28;20076;-78
2022/11/20 03:45:15;;;;;;;3.92;2.63;;;-3.20;99.90;;;;;;5032412;28;20064;-79
2022/11/20 03:47:43;;;;;;;4.07;3.28;;;-3.10;99.90;;;;;;5032808;28;20175;-79
2022/11/20 03:50:14;;;;;;;5.30;2.72;;;-3.10;99.90;;;;;;5065307;28;20140;-79
2022/11/20 03:52:42;;;;;;;4.72;2.63;;;-3.20;99.90;;;;;;5032184;28;20041;-79
2022/11/20 03:55:10;;;;;;;4.75;2.45;;;-3.20;99.90;;;;;;5031582;28;20069;-79
2022/11/20 03:57:37;;;;;;;3.88;2.38;;;-3.20;99.90;;;;;;5014774;28;20050;-80
2022/11/20 04:00:06;;;;;;;3.90;2.50;;;-3.20;99.90;;;;;;5031622;28;20055;-78
2022/11/20 04:02:33;;;;;;;5.05;3.03;;;-3.20;99.90;;;;;;5046425;28;20080;-79
2022/11/20 04:05:01;;;;;;;7.55;3.03;;;-3.20;99.90;;;;;;5030791;28;20045;-79
2022/11/20 04:07:29;;;;;;;4.25;3.20;;;-3.20;99.90;;;;;;5031050;28;20049;-79
2022/11/20 04:09:57;;;;;;;4.95;3.13;;;-3.30;99.90;;;;;;5038092;28;20049;-78
2022/11/20 04:12:24;;;;;;;9.82;3.08;;;-3.30;99.90;;;;;;5049282;28;20160;-78
2022/11/20 04:14:51;;;;;;;5.50;3.22;;;-3.30;99.90;;;;;;5013310;28;20054;-78
2022/11/20 04:17:19;;;;;;;4.13;2.60;;;-3.30;99.90;;;;;;5032414;28;20137;-79
2022/11/20 04:19:46;;;;;;;8.63;3.28;;;-3.30;99.90;;;;;;5037487;28;20059;-79
2022/11/20 04:22:14;;;;;;;6.05;3.15;;;-3.30;99.90;;;;;;5030846;28;20049;-78
2022/11/20 04:24:42;;;;;;;4.50;2.83;;;-3.30;99.90;;;;;;5043896;28;20122;-78
2022/11/20 04:27:10;;;;;;;3.35;2.53;;;-3.30;99.90;;;;;;5072412;28;20083;-78
2022/11/20 04:29:37;;;;;;;3.72;2.92;;;-3.30;99.90;;;;;;5046645;28;20145;-79
2022/11/20 04:32:05;;;;;;;3.97;2.78;;;-3.30;99.90;;;;;;5042699;28;20452;-79
2022/11/20 04:34:32;;;;;;;4.32;2.45;;;-3.30;99.90;;;;;;5033809;28;20098;-80
2022/11/20 04:36:59;;;;;;;3.72;2.30;;;-3.30;99.90;;;;;;5049889;28;20067;-80
2022/11/20 04:39:27;;;;;;;4.05;2.78;;;-3.30;99.90;;;;;;5048850;28;20041;-78
2022/11/20 04:44:37;;;;;;;6.63;3.00;;;-3.30;99.90;;;;;;5052068;28;20497;-80
2022/11/20 04:47:10;;;;;;;6.20;2.97;;;-3.40;99.90;;;;;;5046057;28;20075;-79
2022/11/20 04:49:38;;;;;;;4.57;2.63;;;-3.40;99.90;;;;;;5064927;28;20096;-80
2022/11/20 04:52:05;;;;;;;6.00;3.03;;;-3.40;99.90;;;;;;5032960;28;20049;-81
2022/11/20 04:54:32;;;;;;;6.40;3.17;;;-3.40;99.90;;;;;;5067353;28;20132;-80
2022/11/20 04:57:01;;;;;;;6.38;3.15;;;-3.40;99.90;;;;;;5041032;28;20053;-80
2022/11/20 04:59:29;;;;;;;7.15;3.42;;;-3.40;99.90;;;;;;5029168;28;20057;-80
2022/11/20 05:01:56;;;;;;;3.53;2.67;;;-3.40;99.90;;;;;;5032352;28;20059;-80
2022/11/20 05:04:24;;;;;;;4.78;3.78;;;-3.40;99.90;;;;;;5032784;28;20057;-80
2022/11/20 05:06:51;;;;;;;3.33;2.72;;;-3.40;99.90;;;;;;5046108;28;20052;-80
2022/11/20 05:09:18;;;;;;;4.38;3.53;;;-3.40;99.90;;;;;;5030869;28;20057;-81
2022/11/20 05:11:46;;;;;;;5.10;3.13;;;-3.40;99.90;;;;;;5031881;28;20144;-81
2022/11/20 05:14:15;;;;;;;5.75;3.42;;;-3.40;99.90;;;;;;5033963;28;20160;-80
2022/11/20 05:16:42;;;;;;;5.95;3.05;;;-3.40;99.90;;;;;;5048293;28;20037;-80
2022/11/20 05:19:10;;;;;;;3.80;2.83;;;-3.50;99.90;;;;;;5049881;28;20057;-80
2022/11/20 05:21:37;;;;;;;5.57;2.88;;;-3.50;99.90;;;;;;5050333;28;20049;-79
2022/11/20 05:24:06;;;;;;;4.78;3.20;;;-3.50;99.90;;;;;;5048078;28;20044;-81
2022/11/20 05:26:34;;;;;;;4.82;3.22;;;-3.50;99.90;;;;;;5054084;28;20046;-80
2022/11/20 05:29:01;;;;;;;4.03;3.08;;;-3.60;99.90;;;;;;5028302;28;20076;-80
2022/11/20 05:31:30;;;;;;;6.63;3.17;;;-3.60;99.90;;;;;;5031295;28;20146;-82
2022/11/20 05:33:58;;;;;;;6.25;3.20;;;-3.60;99.90;;;;;;5030447;28;20482;-81
2022/11/20 05:36:26;;;;;;;7.43;3.45;;;-3.60;99.90;;;;;;5030760;28;20053;-82
2022/11/20 05:38:53;;;;;;;4.65;3.10;;;-3.60;99.90;;;;;;5013868;28;20103;-81
2022/11/20 05:41:21;;;;;;;7.60;3.22;;;-3.60;99.90;;;;;;5031360;28;20057;-80
2022/11/20 05:43:52;;;;;;;6.60;3.45;;;-3.60;99.90;;;;;;5042472;28;20049;-80
2022/11/20 05:46:22;;;;;;;6.57;3.17;;;-3.60;99.90;;;;;;5050302;28;20094;-81
2022/11/20 05:48:53;;;;;;;6.25;3.15;;;-3.60;99.90;;;;;;5065239;28;20045;-81
2022/11/20 05:51:21;;;;;;;5.55;3.70;;;-3.60;99.90;;;;;;5048238;28;20413;-83
2022/11/20 05:53:49;;;;;;;5.35;3.80;;;-3.60;99.90;;;;;;5031828;28;20072;-81
2022/11/20 05:56:18;;;;;;;12.75;4.07;;;-3.50;99.90;;;;;;5030956;28;20053;-81
2022/11/20 05:58:47;;;;;;;10.90;5.22;;;-3.50;99.90;;;;;;5062998;28;20045;-81
2022/11/20 06:01:20;;;;;;;24.95;9.55;;;-3.50;99.90;;;;;;5035653;28;20053;-82
2022/11/20 06:03:50;;;;;;;24.40;10.55;;;-3.50;99.90;;;;;;5028695;28;20053;-81
2022/11/20 06:06:20;;;;;;;19.58;9.43;;;-3.50;99.90;;;;;;5044628;28;20049;-80
2022/11/20 06:08:48;;;;;;;18.75;7.95;;;-3.50;99.90;;;;;;5031592;28;20053;-79
2022/11/20 06:11:22;;;;;;;12.70;5.70;;;-3.50;99.90;;;;;;5047285;28;20067;-80
2022/11/20 06:13:49;;;;;;;9.05;3.70;;;-3.50;99.90;;;;;;5049470;28;20584;-78
2022/11/20 06:16:20;;;;;;;6.28;4.00;;;-3.50;99.90;;;;;;5049099;28;20041;-79
2022/11/20 06:18:48;;;;;;;6.22;3.45;;;-3.60;99.90;;;;;;5043040;28;20527;-78
2022/11/20 06:21:19;;;;;;;6.53;3.35;;;-3.50;99.90;;;;;;5032252;28;20052;-78
2022/11/20 06:23:47;;;;;;;7.72;4.00;;;-3.50;99.90;;;;;;5042841;28;20048;-79
2022/11/20 06:26:17;;;;;;;6.40;3.20;;;-3.50;99.90;;;;;;5066074;28;20147;-78
2022/11/20 06:28:45;;;;;;;7.38;3.20;;;-3.50;99.90;;;;;;5042635;28;20049;-77
2022/11/20 06:31:15;;;;;;;5.70;3.35;;;-3.50;99.90;;;;;;5022899;28;20144;-76
2022/11/20 06:33:45;;;;;;;7.30;4.07;;;-3.60;99.90;;;;;;5044825;28;20052;-76
2022/11/20 06:36:15;;;;;;;7.65;3.83;;;-3.60;99.90;;;;;;5050827;28;20083;-77
2022/11/20 06:38:44;;;;;;;7.35;3.83;;;-3.60;99.90;;;;;;5048667;28;20068;-77
2022/11/20 06:41:15;;;;;;;5.93;3.60;;;-3.50;99.90;;;;;;5047369;28;20135;-76
2022/11/20 06:43:42;;;;;;;8.07;3.38;;;-3.60;99.90;;;;;;5072573;28;20068;-75
2022/11/20 06:46:12;;;;;;;6.47;4.30;;;-3.60;99.90;;;;;;5047994;28;20041;-78
2022/11/20 06:48:40;;;;;;;6.25;3.55;;;-3.60;99.90;;;;;;5054137;28;20045;-81
2022/11/20 06:51:08;;;;;;;6.20;3.38;;;-3.60;99.90;;;;;;5028684;28;20091;-79
2022/11/20 06:53:37;;;;;;;6.30;3.40;;;-3.60;99.90;;;;;;5035926;28;20061;-78
2022/11/20 06:56:07;;;;;;;6.35;3.83;;;-3.60;99.90;;;;;;5047547;28;20114;-78
2022/11/20 06:58:36;;;;;;;7.55;3.65;;;-3.50;99.90;;;;;;5043381;28;20087;-78
2022/11/20 07:01:07;;;;;;;6.05;3.58;;;-3.50;99.90;;;;;;5045018;28;20537;-75
2022/11/20 07:03:34;;;;;;;8.88;3.22;;;-3.50;99.90;;;;;;5048060;28;20071;-76
2022/11/20 07:06:03;;;;;;;5.30;3.67;;;-3.50;99.90;;;;;;5050461;28;20069;-77
2022/11/20 07:08:37;;;;;;;7.07;3.95;;;-3.50;99.90;;;;;;5049202;28;20546;-80
2022/11/20 07:11:08;;;;;;;7.10;4.20;;;-3.50;99.90;;;;;;5047239;28;20049;-78
2022/11/20 07:13:36;;;;;;;8.20;4.30;;;-3.50;99.90;;;;;;5049587;28;20053;-80
2022/11/20 07:16:18;;;;;;;7.80;4.07;;;-3.50;99.90;;;;;;5062242;28;20107;-78
2022/11/20 07:18:46;;;;;;;8.37;4.17;;;-3.40;99.90;;;;;;5048507;28;20050;-76
2022/11/20 07:21:13;;;;;;;5.78;3.83;;;-3.40;99.90;;;;;;5042187;28;20216;-76
2022/11/20 07:23:40;;;;;;;8.52;4.20;;;-3.40;99.90;;;;;;5058902;28;20535;-76
2022/11/20 07:26:11;;;;;;;5.70;3.75;;;-3.30;99.90;;;;;;5062723;28;20509;-76
2022/11/20 07:28:40;;;;;;;6.30;3.60;;;-3.30;99.90;;;;;;5055253;28;20487;-78
2022/11/20 07:31:08;;;;;;;9.07;3.90;;;-3.30;99.90;;;;;;5042087;28;20398;-74
2022/11/20 07:33:35;;;;;;;7.18;3.72;;;-3.40;99.90;;;;;;5071208;28;20052;-75
2022/11/20 07:36:04;;;;;;;5.72;4.05;;;-3.40;99.90;;;;;;5046802;28;20041;-77
2022/11/20 07:38:32;;;;;;;7.72;4.25;;;-3.40;99.90;;;;;;5053309;28;20040;-77
2022/11/20 07:41:01;;;;;;;7.57;4.10;;;-3.40;99.90;;;;;;5057151;28;20555;-78
2022/11/20 07:43:30;;;;;;;6.00;3.97;;;-3.40;99.90;;;;;;5067633;28;20045;-77
2022/11/20 07:45:58;;;;;;;7.55;4.20;;;-3.30;99.90;;;;;;5052779;28;20037;-78
2022/11/20 07:48:26;;;;;;;11.50;4.10;;;-3.30;99.90;;;;;;5060862;28;20139;-78
2022/11/20 07:50:55;;;;;;;8.98;4.18;;;-3.30;99.90;;;;;;5064605;28;20106;-76
2022/11/20 07:53:23;;;;;;;11.02;5.00;;;-3.30;99.90;;;;;;5062577;28;20071;-74
2022/11/20 07:55:52;;;;;;;6.50;3.88;;;-3.30;99.90;;;;;;5067550;28;20098;-74
2022/11/20 07:58:20;;;;;;;8.70;4.50;;;-3.40;99.90;;;;;;5048122;28;20073;-76
2022/11/20 08:00:48;;;;;;;9.02;4.53;;;-3.40;99.90;;;;;;5068737;28;20079;-75
2022/11/20 08:03:15;;;;;;;8.95;4.50;;;-3.30;99.90;;;;;;5056017;28;20827;-76
2022/11/20 08:05:43;;;;;;;7.53;4.32;;;-3.30;99.90;;;;;;5067318;28;20036;-76
2022/11/20 08:08:10;;;;;;;9.38;4.47;;;-3.30;99.90;;;;;;5069063;28;20068;-76
2022/11/20 08:10:37;;;;;;;9.55;4.63;;;-3.30;99.90;;;;;;5064472;28;20045;-75
2022/11/20 08:15:52;;;;;;;12.15;4.97;;;-3.20;99.90;;;;;;5051006;28;20067;-75
2022/11/20 08:18:20;;;;;;;8.90;5.78;;;-3.20;99.90;;;;;;5070328;28;20048;-75
2022/11/20 08:20:47;;;;;;;9.35;5.10;;;-3.20;99.90;;;;;;5063719;28;20099;-76
2022/11/20 08:23:15;;;;;;;7.22;4.70;;;-3.20;99.90;;;;;;5068649;28;20040;-76
2022/11/20 08:25:42;;;;;;;11.32;4.63;;;-3.20;99.90;;;;;;5069238;28;20136;-77
2022/11/20 08:28:10;;;;;;;6.25;3.45;;;-3.10;99.90;;;;;;5070505;28;20060;-75
2022/11/20 08:30:38;;;;;;;9.90;5.18;;;-3.10;99.90;;;;;;5061459;28;20476;-77
2022/11/20 08:33:09;;;;;;;11.68;5.32;;;-3.10;99.90;;;;;;5068113;28;20075;-76
2022/11/20 08:35:38;;;;;;;9.43;5.45;;;-3.10;99.90;;;;;;5064092;28;20106;-79
2022/11/20 08:38:11;;;;;;;11.77;6.32;;;-3.10;99.90;;;;;;5047525;28;20144;-77
2022/11/20 08:41:23;;;;;;;8.40;4.72;;;-3.10;99.90;;;;;;5061569;28;20051;-79
2022/11/20 08:43:41;;;;;;;12.32;5.10;;;-3.10;99.90;;;;;;5070426;28;20041;-77
2022/11/20 08:46:08;;;;;;;10.80;4.90;;;-3.10;99.90;;;;;;5065671;28;20079;-79
2022/11/20 08:48:37;;;;;;;8.95;4.78;;;-3.20;99.90;;;;;;5064921;28;20050;-77
2022/11/20 08:51:05;;;;;;;8.73;5.28;;;-3.10;99.90;;;;;;5056632;28;20095;-77
2022/11/20 08:53:33;;;;;;;8.82;4.82;;;-3.10;99.90;;;;;;5050127;28;20463;-76
2022/11/20 08:56:01;;;;;;;7.25;4.07;;;-3.10;99.90;;;;;;5056141;28;20052;-76
2022/11/20 08:58:28;;;;;;;24.17;9.23;;;-3.10;99.90;;;;;;5067532;28;20394;-78
2022/11/20 09:00:56;;;;;;;9.02;4.70;;;-3.10;99.90;;;;;;5055678;28;20135;-78
2022/11/20 09:03:23;;;;;;;12.55;5.28;;;-3.10;99.90;;;;;;5054063;28;20052;-75
2022/11/20 09:05:52;;;;;;;9.93;5.30;;;-3.10;99.90;;;;;;5067829;28;20068;-77
2022/11/20 09:08:19;;;;;;;7.63;4.28;;;-3.10;99.90;;;;;;5060699;28;20048;-77
2022/11/20 09:10:47;;;;;;;12.90;6.07;;;-3.10;99.90;;;;;;5063101;28;20052;-77
2022/11/20 09:13:14;;;;;;;10.68;5.63;;;-3.10;99.90;;;;;;5068275;28;20127;-77
2022/11/20 09:15:41;;;;;;;10.27;5.13;;;-3.10;99.90;;;;;;5063563;28;20051;-78
2022/11/20 09:18:09;;;;;;;9.00;5.22;;;-3.10;99.90;;;;;;5056920;28;20048;-77
2022/11/20 09:20:37;;;;;;;13.07;5.63;;;-3.10;99.90;;;;;;5056739;28;20119;-76
2022/11/20 09:23:05;;;;;;;10.45;5.35;;;-3.00;99.90;;;;;;5069486;28;20053;-75
2022/11/20 09:25:33;;;;;;;12.68;5.30;;;-3.00;99.90;;;;;;5060829;28;20048;-77
2022/11/20 09:28:01;;;;;;;8.38;5.32;;;-2.90;99.90;;;;;;5060070;28;20516;-78
2022/11/20 09:30:29;;;;;;;10.60;5.93;;;-2.90;99.90;;;;;;5060633;28;20064;-76
2022/11/20 09:32:58;;;;;;;11.90;5.47;;;-2.80;99.90;;;;;;5059297;28;20527;-79
2022/11/20 09:35:26;;;;;;;8.55;5.68;;;-2.80;99.90;;;;;;5054539;28;20049;-79
2022/11/20 09:37:53;;;;;;;9.98;5.07;;;-2.70;99.90;;;;;;5067348;28;20504;-76
2022/11/20 09:40:26;;;;;;;10.35;4.68;;;-2.70;99.90;;;;;;5046517;28;20052;-76
2022/11/20 09:42:59;;;;;;;7.30;5.07;;;-2.70;99.90;;;;;;5062040;28;20070;-76
2022/11/20 09:45:39;;;;;;;;;;;-2.70;99.90;;;;;;5049029;28;20511;-75
2022/11/20 09:48:35;;;;;;;9.27;4.90;;;-2.70;99.90;;;;;;5071387;28;20467;-75
2022/11/20 09:51:14;;;;;;;8.98;4.60;;;-2.70;99.90;;;;;;5060954;28;20102;-76
2022/11/20 09:53:56;;;;;;;10.77;4.85;;;-2.80;99.90;;;;;;5062541;28;20177;-77
2022/11/20 09:56:27;;;;;;;10.00;4.70;;;-2.80;99.90;;;;;;5052672;28;20136;-75
2022/11/20 09:58:58;;;;;;;11.05;5.13;;;-2.80;99.90;;;;;;5063643;28;20105;-76
2022/11/20 10:01:32;;;;;;;9.38;4.90;;;-2.80;99.90;;;;;;5068122;28;20060;-76
2022/11/20 10:04:04;;;;;;;13.55;5.32;;;-2.80;99.90;;;;;;5053374;28;20143;-76
2022/11/20 10:06:35;;;;;;;12.00;4.60;;;-2.80;99.90;;;;;;5060138;28;20725;-76
2022/11/20 10:09:23;;;;;;;8.10;5.53;;;-2.80;99.90;;;;;;5060246;28;20056;-74
2022/11/20 10:12:07;;;;;;;10.25;4.90;;;-2.80;99.90;;;;;;5060555;28;20392;-73
2022/11/20 10:14:48;;;;;;;9.13;4.78;;;-2.80;99.90;;;;;;5062064;28;20139;-79
2022/11/20 10:17:26;;;;;;;6.75;4.28;;;-2.70;99.90;;;;;;5066655;28;20052;-75
2022/11/20 10:20:09;;;;;;;8.48;5.07;;;-2.60;99.90;;;;;;5056541;28;20083;-76
2022/11/20 10:22:55;;;;;;;8.32;4.28;;;-2.70;99.90;;;;;;5057139;28;20048;-76
2022/11/20 10:25:26;;;;;;;7.45;4.72;;;-2.70;99.90;;;;;;5059633;28;20425;-79
2022/11/20 10:28:26;;;;;;;11.90;5.57;;;-2.80;99.90;;;;;;5053306;28;20140;-75
2022/11/20 10:31:02;;;;;;;10.73;4.78;;;-2.70;99.90;;;;;;5053564;28;20139;-78
2022/11/20 10:33:37;;;;;;;8.13;4.68;;;-2.70;99.90;;;;;;5055437;28;20076;-74
2022/11/20 10:36:14;;;;;;;6.90;4.43;;;-2.70;99.90;;;;;;5053962;28;20160;-75
2022/11/20 10:38:47;;;;;;;8.10;4.43;;;-2.70;99.90;;;;;;5078432;28;20414;-75
2022/11/20 10:41:27;;;;;;;;;;;-2.70;99.90;;;;;;5061079;28;20068;-75
2022/11/20 10:44:05;;;;;;;7.53;4.30;;;-2.70;99.90;;;;;;5088863;28;20476;-73
2022/11/20 10:46:55;;;;;;;9.43;4.95;;;-2.70;99.90;;;;;;5061818;28;20049;-77
2022/11/20 10:49:23;;;;;;;9.40;4.32;;;-2.70;99.90;;;;;;5057848;28;20048;-78
2022/11/20 10:52:04;;;;;;;10.05;5.10;;;-2.70;99.90;;;;;;5065393;28;20076;-75
2022/11/20 10:54:43;;;;;;;12.57;4.95;;;-2.70;99.90;;;;;;5070337;28;20067;-73
2022/11/20 10:57:24;;;;;;;11.40;4.82;;;-2.70;99.90;;;;;;5066086;28;20047;-75
2022/11/20 11:00:22;;;;;;;8.32;5.35;;;-2.80;99.90;;;;;;5063108;28;20144;-77
2022/11/20 11:03:24;;;;;;;7.63;4.20;;;-2.70;99.90;;;;;;5048915;28;20071;-74
2022/11/20 11:06:00;;;;;;;10.00;5.60;;;-2.70;99.90;;;;;;5067510;28;20965;-80
2022/11/20 11:08:35;;;;;;;10.27;5.00;;;-2.70;99.90;;;;;;5058853;28;20052;-79
2022/11/20 11:11:17;;;;;;;8.23;4.00;;;-2.70;99.90;;;;;;5062494;28;20032;-76
2022/11/20 11:13:44;;;;;;;7.90;4.47;;;-2.70;99.90;;;;;;5067363;28;20040;-74
2022/11/20 11:16:23;;;;;;;11.93;5.10;;;-2.70;99.90;;;;;;5062394;28;20473;-76
2022/11/20 11:18:50;;;;;;;7.35;4.32;;;-2.70;99.90;;;;;;5065660;28;20102;-75
2022/11/20 11:21:25;;;;;;;8.18;4.95;;;-2.70;99.90;;;;;;5068550;28;20046;-73
2022/11/20 11:24:02;;;;;;;11.75;4.93;;;-2.70;99.90;;;;;;5084735;28;20041;-77
2022/11/20 11:26:30;;;;;;;6.72;4.45;;;-2.60;99.90;;;;;;5063793;28;20059;-76
2022/11/20 11:28:59;;;;;;;7.63;4.25;;;-2.60;99.90;;;;;;5067524;28;20139;-76
2022/11/20 11:31:30;;;;;;;7.85;4.32;;;-2.50;99.90;;;;;;5068686;28;20484;-78
2022/11/20 11:34:08;;;;;;;9.27;4.28;;;-2.50;99.90;;;;;;5069202;28;20048;-77
2022/11/20 11:36:36;;;;;;;9.15;4.63;;;-2.60;99.90;;;;;;5063236;28;20144;-74
2022/11/20 11:39:06;;;;;;;9.63;4.75;;;-2.70;99.90;;;;;;5057109;28;20048;-75
2022/11/20 11:41:35;;;;;;;7.38;4.82;;;-2.70;99.90;;;;;;5055399;28;20052;-83
2022/11/20 11:47:06;;;;;;;12.93;5.43;;;-2.70;99.90;;;;;;5060410;28;20063;-78
2022/11/20 11:49:34;;;;;;;14.45;5.72;;;-2.80;99.90;;;;;;5059728;28;20519;-81
2022/11/20 11:52:13;;;;;;;11.98;5.03;;;-2.80;99.90;;;;;;5054240;28;20048;-79
2022/11/20 11:54:48;;;;;;;9.93;5.75;;;-2.80;99.90;;;;;;5073089;28;20056;-80
2022/11/20 11:57:24;;;;;;;10.65;5.22;;;-2.80;99.90;;;;;;5061837;28;20433;-77
2022/11/20 12:00:05;;;;;;;15.52;5.72;;;-2.80;99.90;;;;;;5058332;28;20135;-78
2022/11/20 12:02:54;;;;;;;8.02;4.18;;;-2.80;99.90;;;;;;5061627;28;20106;-77
2022/11/20 12:05:25;;;;;;;13.07;4.88;;;-2.70;99.90;;;;;;5063329;28;20041;-82
2022/11/20 12:07:58;;;;;;;11.70;4.45;;;-2.80;99.90;;;;;;5062640;28;20155;-75
2022/11/20 12:10:42;;;;;;;6.30;4.53;;;-2.70;99.90;;;;;;5066870;28;20044;-74
2022/11/20 12:13:41;;;;;;;9.60;4.80;;;-2.80;99.90;;;;;;5056428;28;20076;-75
2022/11/20 12:16:13;;;;;;;9.00;4.70;;;-2.80;99.90;;;;;;5061236;28;20049;-75
2022/11/20 12:18:43;;;;;;;9.70;4.93;;;-2.80;99.90;;;;;;5066327;28;20075;-76
2022/11/20 12:21:21;;;;;;;8.93;4.75;;;-2.90;99.90;;;;;;5054757;28;20067;-73
2022/11/20 12:24:28;;;;;;;9.00;4.70;;;-2.90;99.90;;;;;;5061094;28;20082;-75
2022/11/20 12:27:11;;;;;;;10.05;4.57;;;-2.90;99.90;;;;;;5078263;28;20037;-77
2022/11/20 12:29:48;;;;;;;7.53;4.63;;;-2.90;99.90;;;;;;5067221;28;20048;-75
2022/11/20 12:32:57;;;;;;;9.95;4.78;;;-2.90;99.90;;;;;;5060162;28;20159;-80
2022/11/20 12:35:46;;;;;;;6.53;4.22;;;-2.90;99.90;;;;;;5059923;28;20044;-77
2022/11/20 12:38:44;;;;;;;15.00;4.70;;;-2.80;99.90;;;;;;5061812;28;20458;-76
2022/11/20 12:47:15;;;;;;;;;;;-2.80;99.90;;;;;;5057133;28;20510;-74
2022/11/20 12:49:55;;;;;;;14.48;5.07;;;-2.80;99.90;;;;;;5059352;28;19959;-77
2022/11/20 12:52:40;;;;;;;8.15;5.35;;;-2.90;99.90;;;;;;5053338;28;20102;-74
2022/11/20 12:55:31;;;;;;;10.52;5.57;;;-2.80;99.90;;;;;;5055782;28;20045;-77
2022/11/20 12:58:06;;;;;;;8.60;5.10;;;-2.80;99.90;;;;;;5063482;28;20688;-75
2022/11/20 13:00:58;;;;;;;10.05;5.22;;;-2.70;99.90;;;;;;5056455;28;20049;-76
2022/11/20 13:03:48;;;;;;;11.02;4.95;;;-2.70;99.90;;;;;;5059079;28;20041;-78
2022/11/20 13:06:18;;;;;;;11.35;5.55;;;-2.70;99.90;;;;;;5053797;28;20525;-74
2022/11/20 13:08:54;;;;;;;12.57;5.38;;;-2.70;99.90;;;;;;5056675;28;20350;-77
2022/11/20 13:11:31;;;;;;;12.43;5.75;;;-2.70;99.90;;;;;;5069645;28;20052;-77
2022/11/20 13:14:13;;;;;;;9.20;5.35;;;-2.80;99.90;;;;;;5058592;28;20414;-73
2022/11/20 13:16:48;;;;;;;10.60;5.13;;;-2.80;99.90;;;;;;5060153;28;20134;-73
2022/11/20 13:19:18;;;;;;;11.68;5.40;;;-2.80;99.90;;;;;;5058618;28;20044;-73
2022/11/20 13:21:49;;;;;;;12.63;5.72;;;-2.90;99.90;;;;;;5055843;28;20052;-75
2022/11/20 13:24:27;;;;;;;9.80;5.47;;;-2.90;99.90;;;;;;5057110;28;20063;-77
2022/11/20 13:27:17;;;;;;;12.60;5.15;;;-2.90;99.90;;;;;;5067682;28;20519;-76